createdAt,value
2023-02-14T00:02:07.400Z,100.00
2023-02-14T00:04:38.211Z,100.00
2023-02-14T00:07:06.309Z,100.00
2023-02-14T00:09:33.763Z,100.00
2023-02-14T00:12:01.218Z,100.00
2023-02-14T00:14:47.441Z,100.00
2023-02-14T00:17:14.922Z,100.00
2023-02-14T00:19:42.396Z,100.00
2023-02-14T00:22:09.879Z,100.00
2023-02-14T00:24:37.344Z,100.00
2023-02-14T00:27:04.977Z,100.00
2023-02-14T00:29:34.230Z,100.00
2023-02-14T00:32:02.270Z,100.00
2023-02-14T00:34:30.004Z,100.00
2023-02-14T00:36:57.499Z,100.00
2023-02-14T00:39:24.980Z,100.00
2023-02-14T00:41:52.467Z,100.00
2023-02-14T00:44:19.957Z,100.00
2023-02-14T00:46:48.828Z,100.00
2023-02-14T00:49:16.451Z,100.00
2023-02-14T00:51:43.954Z,100.00
2023-02-14T00:54:11.504Z,100.00
2023-02-14T00:56:39.007Z,100.00
2023-02-14T00:59:06.491Z,100.00
2023-02-14T01:01:34.005Z,100.00
2023-02-14T01:04:02.898Z,100.00
2023-02-14T01:06:30.386Z,100.00
2023-02-14T01:08:58.135Z,100.00
2023-02-14T01:11:26.263Z,100.00
2023-02-14T01:13:58.556Z,100.00
2023-02-14T01:16:27.938Z,100.00
2023-02-14T01:18:56.061Z,100.00
2023-02-14T01:21:27.040Z,100.00
2023-02-14T01:23:56.359Z,100.00
2023-02-14T01:26:25.521Z,100.00
2023-02-14T01:28:54.531Z,100.00
2023-02-14T01:31:24.705Z,100.00
2023-02-14T01:33:52.606Z,100.00
2023-02-14T01:36:22.701Z,100.00
2023-02-14T01:38:54.864Z,100.00
2023-02-14T01:41:23.415Z,100.00
2023-02-14T01:43:52.510Z,100.00
2023-02-14T01:46:20.493Z,100.00
2023-02-14T01:48:48.727Z,100.00
2023-02-14T01:51:19.082Z,100.00
2023-02-14T01:53:46.769Z,100.00
2023-02-14T01:56:20.638Z,100.00
2023-02-14T01:58:53.689Z,100.00
2023-02-14T02:01:22.017Z,100.00
2023-02-14T02:03:52.341Z,100.00
2023-02-14T02:06:24.960Z,100.00
2023-02-14T02:09:03.380Z,100.00
2023-02-14T02:11:32.190Z,100.00
2023-02-14T02:13:59.663Z,100.00
2023-02-14T02:16:49.025Z,100.00
2023-02-14T02:19:57.768Z,100.00
2023-02-14T02:22:49.198Z,100.00
2023-02-14T02:25:37.939Z,100.00
2023-02-14T02:28:30.515Z,100.00
2023-02-14T02:31:22.034Z,100.00
2023-02-14T02:34:13.539Z,100.00
2023-02-14T02:37:00.085Z,100.00
2023-02-14T02:39:40.733Z,100.00
2023-02-14T02:42:20.819Z,100.00
2023-02-14T02:44:54.938Z,100.00
2023-02-14T02:47:29.493Z,100.00
2023-02-14T02:50:23.907Z,100.00
2023-02-14T02:53:07.036Z,100.00
2023-02-14T02:56:02.784Z,100.00
2023-02-14T02:58:36.103Z,100.00
2023-02-14T03:01:10.160Z,100.00
2023-02-14T03:03:58.535Z,100.00
2023-02-14T03:06:25.994Z,100.00
2023-02-14T03:08:54.810Z,100.00
2023-02-14T03:11:22.604Z,100.00
2023-02-14T03:14:14.135Z,100.00
2023-02-14T03:17:00.123Z,100.00
2023-02-14T03:19:55.326Z,100.00
2023-02-14T03:22:33.639Z,100.00
2023-02-14T03:25:10.779Z,100.00
2023-02-14T03:27:45.872Z,100.00
2023-02-14T03:30:24.527Z,100.00
2023-02-14T03:32:59.642Z,100.00
2023-02-14T03:35:33.408Z,100.00
2023-02-14T03:38:08.606Z,100.00
2023-02-14T03:40:41.857Z,100.00
2023-02-14T03:43:13.210Z,100.00
2023-02-14T03:45:45.296Z,100.00
2023-02-14T03:48:15.243Z,100.00
2023-02-14T03:50:45.437Z,100.00
2023-02-14T03:53:16.010Z,100.00
2023-02-14T03:55:52.286Z,100.00
2023-02-14T03:58:25.659Z,100.00
2023-02-14T04:01:00.044Z,100.00
2023-02-14T04:03:30.716Z,100.00
2023-02-14T04:05:58.711Z,100.00
2023-02-14T04:08:28.451Z,100.00
2023-02-14T04:11:00.551Z,100.00
2023-02-14T04:13:28.972Z,100.00
2023-02-14T04:15:56.612Z,100.00
2023-02-14T04:18:41.649Z,100.00
2023-02-14T04:21:09.141Z,100.00
2023-02-14T04:23:36.617Z,100.00
2023-02-14T04:26:05.910Z,100.00
2023-02-14T04:28:33.835Z,100.00
2023-02-14T04:31:03.561Z,100.00
2023-02-14T04:33:31.655Z,100.00
2023-02-14T04:35:59.234Z,100.00
2023-02-14T04:38:26.922Z,100.00
2023-02-14T04:40:54.391Z,100.00
2023-02-14T04:43:23.196Z,100.00
2023-02-14T04:45:50.656Z,100.00
2023-02-14T04:48:18.108Z,100.00
2023-02-14T04:50:45.578Z,100.00
2023-02-14T04:53:13.032Z,100.00
2023-02-14T04:55:40.498Z,100.00
2023-02-14T04:58:07.952Z,100.00
2023-02-14T05:00:36.823Z,100.00
2023-02-14T05:03:04.485Z,100.00
2023-02-14T05:05:31.966Z,100.00
2023-02-14T05:07:59.435Z,100.00
2023-02-14T05:10:27.074Z,100.00
2023-02-14T05:12:54.538Z,100.00
2023-02-14T05:15:21.983Z,100.00
2023-02-14T05:17:50.815Z,100.00
2023-02-14T05:20:18.624Z,100.00
2023-02-14T05:22:46.109Z,100.00
2023-02-14T05:25:13.559Z,100.00
2023-02-14T05:27:41.066Z,100.00
2023-02-14T05:30:09.916Z,100.00
2023-02-14T05:32:37.476Z,100.00
2023-02-14T05:35:07.313Z,100.00
2023-02-14T05:37:34.797Z,100.00
2023-02-14T05:40:02.258Z,100.00
2023-02-14T05:42:29.733Z,100.00
2023-02-14T05:44:57.192Z,100.00
2023-02-14T05:47:24.665Z,100.00
2023-02-14T05:49:52.130Z,100.00
2023-02-14T05:52:20.909Z,100.00
2023-02-14T05:54:48.364Z,100.00
2023-02-14T05:57:15.964Z,100.00
2023-02-14T05:59:43.440Z,100.00
2023-02-14T06:02:11.051Z,100.00
2023-02-14T06:04:38.580Z,100.00
2023-02-14T06:07:06.163Z,100.00
2023-02-14T06:09:35.370Z,100.00
2023-02-14T06:12:02.871Z,100.00
2023-02-14T06:14:30.341Z,100.00
2023-02-14T06:16:57.828Z,100.00
2023-02-14T06:19:25.319Z,100.00
2023-02-14T06:21:52.780Z,100.00
2023-02-14T06:24:20.289Z,100.00
2023-02-14T06:26:49.082Z,100.00
2023-02-14T06:29:18.374Z,100.00
2023-02-14T06:31:45.954Z,100.00
2023-02-14T06:34:15.897Z,100.00
2023-02-14T06:36:43.611Z,100.00
2023-02-14T06:39:11.163Z,100.00
2023-02-14T06:41:38.655Z,100.00
2023-02-14T06:44:07.545Z,100.00
2023-02-14T06:46:35.091Z,100.00
2023-02-14T06:49:02.558Z,100.00
2023-02-14T06:51:30.023Z,100.00
2023-02-14T06:53:57.497Z,100.00
2023-02-14T06:56:24.972Z,100.00
2023-02-14T06:58:52.413Z,100.00
2023-02-14T07:01:21.240Z,100.00
2023-02-14T07:03:48.721Z,100.00
2023-02-14T07:06:16.182Z,100.00
2023-02-14T07:08:43.624Z,100.00
2023-02-14T07:11:11.178Z,100.00
2023-02-14T07:13:38.670Z,100.00
2023-02-14T07:16:06.703Z,100.00
2023-02-14T07:18:35.510Z,100.00
2023-02-14T07:21:03.187Z,100.00
2023-02-14T07:23:30.815Z,100.00
2023-02-14T07:25:58.297Z,100.00
2023-02-14T07:28:25.799Z,100.00
2023-02-14T07:30:53.513Z,100.00
2023-02-14T07:33:21.025Z,100.00
2023-02-14T07:35:49.834Z,100.00
2023-02-14T07:38:17.340Z,100.00
2023-02-14T07:40:44.837Z,100.00
2023-02-14T07:43:12.328Z,100.00
2023-02-14T07:45:39.801Z,100.00
2023-02-14T07:48:07.438Z,100.00
2023-02-14T07:50:34.885Z,100.00
2023-02-14T07:53:03.793Z,100.00
2023-02-14T07:55:31.248Z,100.00
2023-02-14T07:57:58.731Z,100.00
2023-02-14T08:00:26.430Z,100.00
2023-02-14T08:02:55.930Z,100.00
2023-02-14T08:05:23.512Z,100.00
2023-02-14T08:07:51.362Z,100.00
2023-02-14T08:10:20.389Z,100.00
2023-02-14T08:13:00.224Z,100.00
2023-02-14T08:15:46.230Z,100.00
2023-02-14T08:18:13.904Z,100.00
2023-02-14T08:20:41.409Z,100.00
2023-02-14T08:23:08.893Z,100.00
2023-02-14T08:25:37.871Z,100.00
2023-02-14T08:28:05.919Z,100.00
2023-02-14T08:30:33.898Z,100.00
2023-02-14T08:33:01.388Z,100.00
2023-02-14T08:35:28.863Z,100.00
2023-02-14T08:37:56.347Z,100.00
2023-02-14T08:40:23.957Z,100.00
2023-02-14T08:42:52.781Z,100.00
2023-02-14T08:45:20.574Z,100.00
2023-02-14T08:47:48.554Z,100.00
2023-02-14T08:50:18.289Z,100.00
2023-02-14T08:52:46.072Z,100.00
2023-02-14T08:55:14.989Z,100.00
2023-02-14T08:57:42.576Z,100.00
2023-02-14T09:00:12.523Z,100.00
2023-02-14T09:02:39.997Z,100.00
2023-02-14T09:05:09.327Z,100.00
2023-02-14T09:07:36.810Z,100.00
2023-02-14T09:10:04.460Z,100.00
2023-02-14T09:12:31.950Z,100.00
2023-02-14T09:14:59.430Z,100.00
2023-02-14T09:17:28.388Z,100.00
2023-02-14T09:19:55.882Z,100.00
2023-02-14T09:22:23.451Z,100.00
2023-02-14T09:24:50.930Z,100.00
2023-02-14T09:27:18.407Z,100.00
2023-02-14T09:29:45.915Z,100.00
2023-02-14T09:32:13.519Z,100.00
2023-02-14T09:35:00.120Z,100.00
2023-02-14T09:37:45.413Z,100.00
2023-02-14T09:40:14.609Z,100.00
2023-02-14T09:42:52.388Z,100.00
2023-02-14T09:45:22.906Z,100.00
2023-02-14T09:47:53.972Z,100.00
2023-02-14T09:50:26.457Z,100.00
2023-02-14T09:52:57.924Z,100.00
2023-02-14T09:55:31.617Z,100.00
2023-02-14T09:58:09.928Z,100.00
2023-02-14T10:00:44.331Z,100.00
2023-02-14T10:03:39.924Z,100.00
2023-02-14T10:06:20.265Z,97.26
2023-02-14T10:08:56.633Z,92.52
2023-02-14T10:11:25.731Z,88.57
2023-02-14T10:13:58.789Z,86.66
2023-02-14T10:16:31.101Z,85.34
2023-02-14T10:19:02.369Z,87.50
2023-02-14T10:21:36.622Z,94.40
2023-02-14T10:24:12.535Z,98.58
2023-02-14T10:26:41.603Z,100.00
2023-02-14T10:29:14.790Z,100.00
2023-02-14T10:31:50.211Z,100.00
2023-02-14T10:34:25.684Z,100.00
2023-02-14T10:37:13.056Z,100.00
2023-02-14T10:39:57.370Z,97.11
2023-02-14T10:42:34.846Z,100.00
2023-02-14T10:45:13.825Z,100.00
2023-02-14T10:47:49.938Z,94.70
2023-02-14T10:50:22.845Z,91.32
2023-02-14T10:53:04.675Z,88.09
2023-02-14T10:55:40.713Z,85.23
2023-02-14T10:58:13.409Z,88.20
2023-02-14T11:00:50.674Z,87.22
2023-02-14T11:03:18.768Z,93.14
2023-02-14T11:05:48.899Z,98.24
2023-02-14T11:08:24.941Z,97.73
2023-02-14T11:10:53.039Z,99.95
2023-02-14T11:13:32.567Z,94.81
2023-02-14T11:16:03.212Z,91.12
2023-02-14T11:18:33.111Z,91.51
2023-02-14T11:21:03.140Z,90.11
2023-02-14T11:23:36.694Z,86.72
2023-02-14T11:26:06.212Z,84.71
2023-02-14T11:28:35.608Z,93.46
2023-02-14T11:31:04.354Z,93.82
2023-02-14T11:33:38.404Z,95.80
2023-02-14T11:36:11.936Z,95.02
2023-02-14T11:38:42.115Z,97.07
2023-02-14T11:41:12.962Z,96.24
2023-02-14T11:43:41.581Z,98.42
2023-02-14T11:46:15.845Z,92.28
2023-02-14T11:48:59.436Z,88.66
2023-02-14T11:51:30.637Z,82.90
2023-02-14T11:54:04.639Z,79.30
2023-02-14T11:56:47.846Z,76.78
2023-02-14T11:59:26.982Z,76.29
2023-02-14T12:01:55.548Z,75.09
2023-02-14T12:04:29.104Z,72.51
2023-02-14T12:07:15.037Z,73.29
2023-02-14T12:09:44.266Z,74.91
2023-02-14T12:12:22.124Z,73.82
2023-02-14T12:14:49.805Z,74.57
2023-02-14T12:17:26.802Z,72.36
2023-02-14T12:20:01.531Z,71.17
2023-02-14T12:22:33.864Z,70.90
2023-02-14T12:25:13.730Z,70.51
2023-02-14T12:27:49.436Z,70.16
2023-02-14T12:30:20.236Z,68.52
2023-02-14T12:32:50.270Z,70.47
2023-02-14T12:35:20.372Z,69.24
2023-02-14T12:38:04.727Z,71.09
2023-02-14T12:40:44.119Z,71.59
2023-02-14T12:43:35.142Z,70.39
2023-02-14T12:46:32.486Z,73.41
2023-02-14T12:49:31.287Z,72.46
2023-02-14T12:52:10.714Z,70.67
2023-02-14T12:54:50.333Z,69.36
2023-02-14T12:57:31.913Z,71.32
2023-02-14T13:00:15.935Z,74.86
2023-02-14T13:03:34.675Z,72.81
2023-02-14T13:06:08.229Z,69.43
2023-02-14T13:08:51.184Z,68.46
2023-02-14T13:11:37.998Z,68.73
2023-02-14T13:14:21.124Z,68.50
2023-02-14T13:16:55.805Z,69.39
2023-02-14T13:19:36.216Z,67.62
2023-02-14T13:22:05.968Z,67.10
2023-02-14T13:24:39.176Z,67.95
2023-02-14T13:27:10.681Z,68.44
2023-02-14T13:29:45.845Z,66.96
2023-02-14T13:32:17.639Z,66.88
2023-02-14T13:34:47.690Z,66.44
2023-02-14T13:37:19.196Z,64.98
2023-02-14T13:39:49.771Z,67.21
2023-02-14T13:42:50.642Z,66.55
2023-02-14T13:45:53.831Z,67.43
2023-02-14T13:48:23.593Z,64.77
2023-02-14T13:50:54.676Z,64.23
2023-02-14T13:53:37.643Z,66.74
2023-02-14T13:56:07.961Z,69.25
2023-02-14T13:58:36.320Z,70.42
2023-02-14T14:01:32.162Z,69.88
2023-02-14T14:04:00.890Z,73.21
2023-02-14T14:06:28.684Z,73.17
2023-02-14T14:08:58.430Z,71.43
2023-02-14T14:12:00.612Z,70.56
2023-02-14T14:14:39.829Z,74.55
2023-02-14T14:17:27.481Z,75.07
2023-02-14T14:19:55.416Z,77.12
2023-02-14T14:22:23.195Z,75.56
2023-02-14T14:24:57.098Z,74.12
2023-02-14T14:27:26.779Z,73.64
2023-02-14T14:29:56.283Z,74.33
2023-02-14T14:32:29.813Z,72.47
2023-02-14T14:34:59.368Z,74.25
2023-02-14T14:37:29.414Z,74.20
2023-02-14T14:39:59.152Z,72.98
2023-02-14T14:42:29.778Z,74.88
2023-02-14T14:45:02.055Z,76.05
2023-02-14T14:47:38.710Z,75.27
2023-02-14T14:50:10.201Z,74.43
2023-02-14T14:52:42.333Z,76.18
2023-02-14T14:55:19.190Z,77.63
2023-02-14T14:57:50.952Z,79.73
2023-02-14T15:00:22.625Z,81.33
2023-02-14T15:03:00.941Z,82.36
2023-02-14T15:05:30.817Z,80.65
2023-02-14T15:07:58.732Z,79.37
2023-02-14T15:10:28.730Z,80.64
2023-02-14T15:13:17.040Z,83.21
2023-02-14T15:15:50.746Z,87.78
2023-02-14T15:18:21.560Z,89.96
2023-02-14T15:20:50.498Z,91.67
2023-02-14T15:23:21.051Z,93.49
2023-02-14T15:25:49.923Z,94.10
2023-02-14T15:28:28.217Z,92.47
2023-02-14T15:31:01.917Z,95.53
2023-02-14T15:33:32.408Z,93.31
2023-02-14T15:36:04.212Z,95.44
2023-02-14T15:38:33.762Z,93.97
2023-02-14T15:41:02.491Z,93.60
2023-02-14T15:43:32.402Z,91.84
2023-02-14T15:46:15.292Z,93.32
2023-02-14T15:48:46.443Z,93.43
2023-02-14T15:51:20.066Z,97.39
2023-02-14T15:53:52.839Z,100.00
2023-02-14T15:56:24.794Z,100.00
2023-02-14T15:58:59.656Z,100.00
2023-02-14T16:01:27.970Z,100.00
2023-02-14T16:03:59.649Z,100.00
2023-02-14T16:06:33.951Z,100.00
2023-02-14T16:09:01.778Z,100.00
2023-02-14T16:11:31.441Z,100.00
2023-02-14T16:13:59.346Z,100.00
2023-02-14T16:16:26.936Z,100.00
2023-02-14T16:18:56.456Z,98.80
2023-02-14T16:21:27.547Z,99.22
2023-02-14T16:24:13.660Z,100.00
2023-02-14T16:26:42.644Z,100.00
2023-02-14T16:29:11.896Z,100.00
2023-02-14T16:31:51.936Z,100.00
2023-02-14T16:34:28.777Z,100.00
2023-02-14T16:36:57.614Z,100.00
2023-02-14T16:39:26.269Z,100.00
2023-02-14T16:41:57.270Z,100.00
2023-02-14T16:44:24.723Z,100.00
2023-02-14T16:46:52.209Z,100.00
2023-02-14T16:49:19.702Z,100.00
2023-02-14T16:51:48.519Z,100.00
2023-02-14T16:54:20.888Z,100.00
2023-02-14T16:56:52.869Z,100.00
2023-02-14T16:59:20.366Z,100.00
2023-02-14T17:01:48.711Z,100.00
2023-02-14T17:04:16.640Z,100.00
2023-02-14T17:06:49.313Z,100.00
2023-02-14T17:09:24.206Z,100.00
2023-02-14T17:11:55.740Z,100.00
2023-02-14T17:14:26.235Z,100.00
2023-02-14T17:16:54.788Z,100.00
2023-02-14T17:19:22.495Z,100.00
2023-02-14T17:21:50.098Z,100.00
2023-02-14T17:24:19.141Z,100.00
2023-02-14T17:26:46.620Z,100.00
2023-02-14T17:29:14.300Z,100.00
2023-02-14T17:31:41.901Z,100.00
2023-02-14T17:34:10.796Z,100.00
2023-02-14T17:36:38.543Z,100.00
2023-02-14T17:39:06.859Z,100.00
2023-02-14T17:41:35.720Z,100.00
2023-02-14T17:44:04.888Z,100.00
2023-02-14T17:46:33.188Z,100.00
2023-02-14T17:49:02.521Z,100.00
2023-02-14T17:51:30.390Z,100.00
2023-02-14T17:53:59.073Z,100.00
2023-02-14T17:56:27.666Z,100.00
2023-02-14T17:58:56.990Z,100.00
2023-02-14T18:01:26.978Z,100.00
2023-02-14T18:03:55.823Z,100.00
2023-02-14T18:06:23.760Z,100.00
2023-02-14T18:08:52.925Z,100.00
2023-02-14T18:11:21.680Z,100.00
2023-02-14T18:13:49.998Z,100.00
2023-02-14T18:16:20.136Z,100.00
2023-02-14T18:18:48.446Z,100.00
2023-02-14T18:21:18.831Z,100.00
2023-02-14T18:23:46.307Z,100.00
2023-02-14T18:26:15.552Z,100.00
2023-02-14T18:28:43.473Z,100.00
2023-02-14T18:31:12.839Z,100.00
2023-02-14T18:33:42.327Z,100.00
2023-02-14T18:36:12.747Z,100.00
2023-02-14T18:38:41.142Z,100.00
2023-02-14T18:41:10.936Z,100.00
2023-02-14T18:43:40.935Z,100.00
2023-02-14T18:46:10.423Z,100.00
2023-02-14T18:48:38.316Z,100.00
2023-02-14T18:51:08.634Z,100.00
2023-02-14T18:53:36.217Z,100.00
2023-02-14T18:56:05.328Z,100.00
2023-02-14T18:58:32.883Z,100.00
2023-02-14T19:01:00.829Z,100.00
2023-02-14T19:03:28.484Z,100.00
2023-02-14T19:06:00.026Z,100.00
2023-02-14T19:08:31.141Z,100.00
2023-02-14T19:10:59.022Z,100.00
2023-02-14T19:13:29.202Z,100.00
2023-02-14T19:15:57.219Z,100.00
2023-02-14T19:18:25.753Z,100.00
2023-02-14T19:20:53.605Z,100.00
2023-02-14T19:23:21.624Z,100.00
2023-02-14T19:25:50.558Z,100.00
2023-02-14T19:28:18.054Z,100.00
2023-02-14T19:30:45.545Z,100.00
2023-02-14T19:33:13.101Z,100.00
2023-02-14T19:35:40.666Z,100.00
2023-02-14T19:38:08.114Z,100.00
2023-02-14T19:40:35.561Z,100.00
2023-02-14T19:43:04.390Z,100.00
2023-02-14T19:45:32.493Z,100.00
2023-02-14T19:48:01.592Z,100.00
2023-02-14T19:50:30.807Z,100.00
2023-02-14T19:52:58.436Z,100.00
2023-02-14T19:55:27.527Z,100.00
2023-02-14T19:57:55.655Z,100.00
2023-02-14T20:00:25.139Z,100.00
2023-02-14T20:02:53.203Z,100.00
2023-02-14T20:05:21.555Z,100.00
2023-02-14T20:07:51.744Z,100.00
2023-02-14T20:10:19.578Z,100.00
2023-02-14T20:12:47.254Z,100.00
2023-02-14T20:15:14.789Z,100.00
2023-02-14T20:17:43.592Z,100.00
2023-02-14T20:20:13.619Z,100.00
2023-02-14T20:22:41.602Z,100.00
2023-02-14T20:25:09.732Z,100.00
2023-02-14T20:27:38.190Z,100.00
2023-02-14T20:30:08.972Z,100.00
2023-02-14T20:32:37.177Z,100.00
2023-02-14T20:35:06.515Z,100.00
2023-02-14T20:37:33.978Z,100.00
2023-02-14T20:40:01.436Z,100.00
2023-02-14T20:42:28.894Z,100.00
2023-02-14T20:44:56.358Z,100.00
2023-02-14T20:47:23.819Z,100.00
2023-02-14T20:49:51.266Z,100.00
2023-02-14T20:52:20.076Z,100.00
2023-02-14T20:54:47.527Z,100.00
2023-02-14T20:57:14.997Z,100.00
2023-02-14T20:59:44.707Z,100.00
2023-02-14T21:02:12.658Z,100.00
2023-02-14T21:04:40.260Z,100.00
2023-02-14T21:07:10.129Z,100.00
2023-02-14T21:09:39.015Z,100.00
2023-02-14T21:12:07.565Z,100.00
2023-02-14T21:14:35.096Z,100.00
2023-02-14T21:17:04.256Z,100.00
2023-02-14T21:19:32.302Z,100.00
2023-02-14T21:21:59.763Z,100.00
2023-02-14T21:24:27.241Z,100.00
2023-02-14T21:26:56.052Z,100.00
2023-02-14T21:29:23.533Z,100.00
2023-02-14T21:31:51.158Z,100.00
2023-02-14T21:34:18.718Z,100.00
2023-02-14T21:36:46.192Z,100.00
2023-02-14T21:39:14.281Z,100.00
2023-02-14T21:41:41.748Z,100.00
2023-02-14T21:44:31.060Z,100.00
2023-02-14T21:46:57.558Z,100.00
2023-02-14T21:49:42.633Z,100.00
2023-02-14T21:52:10.090Z,100.00
2023-02-14T21:54:37.770Z,100.00
2023-02-14T21:57:05.242Z,100.00
2023-02-14T21:59:34.496Z,100.00
2023-02-14T22:02:01.969Z,100.00
2023-02-14T22:04:29.430Z,100.00
2023-02-14T22:06:57.052Z,100.00
2023-02-14T22:09:24.550Z,100.00
2023-02-14T22:11:52.035Z,100.00
2023-02-14T22:14:19.746Z,100.00
2023-02-14T22:16:48.786Z,100.00
2023-02-14T22:19:17.068Z,100.00
2023-02-14T22:21:44.690Z,100.00
2023-02-14T22:24:12.527Z,100.00
2023-02-14T22:26:40.819Z,100.00
2023-02-14T22:29:11.500Z,100.00
2023-02-14T22:31:41.126Z,100.00
2023-02-14T22:34:12.296Z,100.00
2023-02-14T22:36:39.808Z,100.00
2023-02-14T22:39:07.419Z,100.00
2023-02-14T22:41:37.608Z,100.00
2023-02-14T22:44:05.824Z,100.00
2023-02-14T22:46:33.574Z,100.00
2023-02-14T22:49:01.069Z,100.00
2023-02-14T22:51:31.991Z,100.00
2023-02-14T22:54:02.008Z,100.00
2023-02-14T22:56:31.823Z,100.00
2023-02-14T22:59:02.495Z,100.00
2023-02-14T23:01:29.997Z,100.00
2023-02-14T23:03:59.684Z,100.00
2023-02-14T23:06:29.336Z,100.00
2023-02-14T23:08:58.503Z,100.00
2023-02-14T23:11:28.165Z,100.00
2023-02-14T23:14:13.925Z,100.00
2023-02-14T23:17:04.987Z,100.00
2023-02-14T23:19:51.821Z,100.00
2023-02-14T23:22:21.515Z,100.00
2023-02-14T23:24:52.670Z,100.00
2023-02-14T23:27:22.652Z,100.00
2023-02-14T23:29:50.247Z,100.00
2023-02-14T23:32:18.080Z,100.00
2023-02-14T23:34:46.309Z,100.00
2023-02-14T23:37:14.916Z,100.00
2023-02-14T23:39:42.567Z,100.00
2023-02-14T23:42:13.626Z,100.00
2023-02-14T23:44:42.736Z,100.00
2023-02-14T23:47:10.946Z,100.00
2023-02-14T23:49:40.806Z,100.00
2023-02-14T23:52:10.652Z,100.00
2023-02-14T23:54:39.145Z,100.00
2023-02-14T23:57:08.266Z,100.00
2023-02-14T23:59:37.078Z,100.00
